createdAt,value
2022-10-06T00:04:15.361Z,19.30
2022-10-06T00:14:20.362Z,19.40
2022-10-06T00:24:24.168Z,19.60
2022-10-06T00:34:29.153Z,19.70
2022-10-06T00:44:33.075Z,19.80
2022-10-06T00:54:38.233Z,19.50
2022-10-06T01:04:46.377Z,19.20
2022-10-06T01:14:52.470Z,19.00
2022-10-06T01:24:58.291Z,18.90
2022-10-06T01:35:01.972Z,18.80
2022-10-06T01:45:08.458Z,18.80
2022-10-06T01:55:12.061Z,18.80
2022-10-06T02:05:17.332Z,18.80
2022-10-06T02:15:22.003Z,18.80
2022-10-06T02:25:27.513Z,18.70
2022-10-06T02:35:31.151Z,18.70
2022-10-06T02:45:36.173Z,18.60
2022-10-06T02:55:41.378Z,18.80
2022-10-06T03:05:46.404Z,18.80
2022-10-06T03:15:50.137Z,18.90
2022-10-06T03:25:59.165Z,19.00
2022-10-06T03:36:04.932Z,19.00
2022-10-06T03:46:11.797Z,18.80
2022-10-06T03:56:17.028Z,18.70
2022-10-06T04:06:22.519Z,18.90
2022-10-06T04:16:27.969Z,18.90
2022-10-06T04:26:38.145Z,18.70
2022-10-06T04:36:43.017Z,18.60
2022-10-06T04:46:48.223Z,18.50
2022-10-06T04:56:51.991Z,18.80
2022-10-06T05:06:57.177Z,19.80
2022-10-06T05:17:01.132Z,20.10
2022-10-06T05:27:06.830Z,19.90
2022-10-06T05:37:10.540Z,19.80
2022-10-06T05:47:15.578Z,19.80
2022-10-06T05:57:19.278Z,19.70
2022-10-06T06:07:24.322Z,20.10
2022-10-06T06:17:28.032Z,19.80
2022-10-06T06:27:33.299Z,20.00
2022-10-06T06:37:36.923Z,20.50
2022-10-06T06:47:42.213Z,20.90
2022-10-06T06:57:47.462Z,20.80
2022-10-06T07:07:52.596Z,20.50
2022-10-06T07:18:13.824Z,20.50
2022-10-06T07:28:18.932Z,20.90
2022-10-06T07:38:26.010Z,21.20
2022-10-06T07:48:31.157Z,21.10
2022-10-06T07:58:37.519Z,21.30
2022-10-06T08:08:43.807Z,21.80
2022-10-06T08:18:53.498Z,22.40
2022-10-06T08:29:03.388Z,22.50
2022-10-06T08:39:07.466Z,22.60
2022-10-06T08:49:20.054Z,23.00
2022-10-06T08:59:24.102Z,23.40
2022-10-06T09:09:51.977Z,23.80
2022-10-06T09:20:00.157Z,23.50
2022-10-06T09:30:06.859Z,23.80
2022-10-06T09:40:35.139Z,23.50
2022-10-06T09:50:40.868Z,24.60
2022-10-06T10:00:49.330Z,24.00
2022-10-06T10:11:27.696Z,23.90
2022-10-06T10:21:34.718Z,24.50
2022-10-06T10:31:54.905Z,25.20
2022-10-06T10:42:03.162Z,24.80
2022-10-06T10:52:13.414Z,25.10
2022-10-06T11:02:21.946Z,25.50
2022-10-06T11:12:38.895Z,26.50
2022-10-06T11:22:48.091Z,26.80
2022-10-06T11:33:07.303Z,27.70
2022-10-06T11:43:18.506Z,27.40
2022-10-06T11:53:40.993Z,27.40
2022-10-06T12:03:49.576Z,27.30
2022-10-06T12:24:34.400Z,27.60
2022-10-06T12:34:58.588Z,27.60
2022-10-06T12:45:02.547Z,27.30
2022-10-06T12:55:29.988Z,27.60
2022-10-06T13:05:35.741Z,27.60
2022-10-06T13:15:45.055Z,27.70
2022-10-06T13:25:51.313Z,28.50
2022-10-06T13:35:57.023Z,28.80
2022-10-06T13:46:01.330Z,29.70
2022-10-06T13:56:06.580Z,29.60
2022-10-06T14:06:17.366Z,29.20
2022-10-06T14:16:24.350Z,27.30
2022-10-06T14:26:30.103Z,28.90
2022-10-06T14:36:37.958Z,29.20
2022-10-06T14:46:42.599Z,28.70
2022-10-06T14:56:52.494Z,28.90
2022-10-06T15:07:14.349Z,28.90
2022-10-06T15:17:19.439Z,28.80
2022-10-06T15:37:45.944Z,27.40
2022-10-06T15:47:52.979Z,25.60
2022-10-06T15:57:58.113Z,25.00
2022-10-06T16:08:02.196Z,25.00
2022-10-06T16:18:07.728Z,24.50
2022-10-06T16:28:11.646Z,24.20
2022-10-06T16:38:16.665Z,23.80
2022-10-06T16:48:20.318Z,23.40
2022-10-06T16:58:25.311Z,23.30
2022-10-06T17:08:29.393Z,23.00
2022-10-06T17:18:34.630Z,22.90
2022-10-06T17:28:38.688Z,22.90
2022-10-06T17:38:47.001Z,22.90
2022-10-06T17:48:52.964Z,22.50
2022-10-06T17:59:00.786Z,22.60
2022-10-06T18:09:07.247Z,22.40
2022-10-06T18:19:14.469Z,22.30
2022-10-06T18:29:20.991Z,22.20
2022-10-06T18:39:26.287Z,22.20
2022-10-06T18:49:30.068Z,22.20
2022-10-06T18:59:35.439Z,21.90
2022-10-06T19:09:43.874Z,22.00
2022-10-06T19:19:51.792Z,21.90
2022-10-06T19:29:57.056Z,21.90
2022-10-06T19:40:02.348Z,21.60
2022-10-06T19:50:12.242Z,21.60
2022-10-06T20:00:18.592Z,20.90
2022-10-06T20:10:22.588Z,20.60
2022-10-06T20:20:27.656Z,20.30
2022-10-06T20:30:31.392Z,20.30
2022-10-06T20:40:43.418Z,19.90
2022-10-06T20:50:47.305Z,19.80
2022-10-06T21:00:52.484Z,19.60
2022-10-06T21:11:00.593Z,19.20
2022-10-06T21:21:07.944Z,19.20
2022-10-06T21:31:14.081Z,19.30
2022-10-06T21:41:34.550Z,19.20
2022-10-06T21:51:38.778Z,19.20
2022-10-06T22:01:45.458Z,19.00
2022-10-06T22:11:50.314Z,18.90
2022-10-06T22:21:56.090Z,18.90
2022-10-06T22:31:59.747Z,18.60
2022-10-06T22:42:04.935Z,18.70
2022-10-06T22:52:08.568Z,18.70
2022-10-06T23:02:13.612Z,18.70
2022-10-06T23:12:17.418Z,18.50
2022-10-06T23:22:22.633Z,18.70
2022-10-06T23:32:26.435Z,18.60
2022-10-06T23:42:31.477Z,18.50
2022-10-06T23:52:35.291Z,18.30
